Time;durP1;ratioP1;P1;durP2;ratioP2;P2;SDS_P1;SDS_P2;PMS_P1;PMS_P2;Temp;Humidity;BMP_temperature;BMP_pressure;BME280_temperature;BME280_humidity;BME280_pressure;Samples;Min_cycle;Max_cycle;Signal;HPM_P1;HPM_P2
2023/08/17 00:01:43;;;;;;;11.80;10.60;;;;;;;22.75;84.40;94974.03;5072887;28;20482;-77
2023/08/17 00:04:09;;;;;;;11.57;10.43;;;;;;;22.76;84.03;94973.00;5072674;28;20824;-77
2023/08/17 00:06:37;;;;;;;11.53;10.53;;;;;;;22.78;83.61;94978.16;5072447;28;20443;-77
2023/08/17 00:09:05;;;;;;;10.00;9.00;;;;;;;22.74;83.54;94977.75;5072685;28;20441;-77
2023/08/17 00:11:32;;;;;;;12.57;9.40;;;;;;;22.71;83.51;94978.16;5072598;28;20473;-77
2023/08/17 00:14:01;;;;;;;10.60;9.53;;;;;;;22.65;83.91;94978.13;5073323;28;20458;-77
2023/08/17 00:16:28;;;;;;;10.00;9.10;;;;;;;22.61;83.50;94976.91;5073315;28;20855;-78
2023/08/17 00:18:55;;;;;;;10.40;9.40;;;;;;;22.54;83.56;94972.34;5073481;28;20453;-75
2023/08/17 00:21:21;;;;;;;12.23;9.20;;;;;;;22.54;83.16;94972.34;5072838;28;20609;-78
2023/08/17 00:23:50;;;;;;;10.17;8.30;;;;;;;22.51;82.92;94969.25;5073643;28;20466;-76
2023/08/17 00:26:17;;;;;;;9.10;7.90;;;;;;;22.44;82.71;94976.41;5073561;28;20489;-78
2023/08/17 00:28:44;;;;;;;13.37;9.53;;;;;;;22.42;82.74;94978.47;5073458;28;20448;-77
2023/08/17 00:31:12;;;;;;;10.73;8.30;;;;;;;22.40;82.66;94973.34;5073437;28;20987;-77
2023/08/17 00:33:39;;;;;;;8.57;7.73;;;;;;;22.36;82.48;94972.09;5055199;28;20438;-77
2023/08/17 00:36:06;;;;;;;8.60;7.80;;;;;;;22.34;82.14;94967.97;5073419;28;20430;-77
2023/08/17 00:38:33;;;;;;;10.80;8.37;;;;;;;22.32;81.77;94970.84;5073634;28;20460;-76
2023/08/17 00:41:01;;;;;;;9.20;7.57;;;;;;;22.30;81.57;94969.41;5073127;28;20490;-77
2023/08/17 00:43:28;;;;;;;7.63;6.80;;;;;;;22.28;81.11;94966.94;5073703;28;20438;-78
2023/08/17 00:45:54;;;;;;;12.90;7.63;;;;;;;22.26;81.11;94974.28;5075885;28;20438;-75
2023/08/17 00:48:21;;;;;;;8.93;8.03;;;;;;;22.27;80.77;94967.13;5077028;28;20441;-77
2023/08/17 00:50:49;;;;;;;9.57;7.40;;;;;;;22.25;80.98;94970.78;5077337;28;20468;-75
2023/08/17 00:53:17;;;;;;;7.37;6.40;;;;;;;22.20;80.61;94965.22;5076894;28;20461;-75
2023/08/17 00:55:44;;;;;;;7.93;7.10;;;;;;;22.17;80.09;94962.97;5076821;28;20443;-74
2023/08/17 00:58:12;;;;;;;13.50;6.93;;;;;;;22.13;79.25;94961.72;5076991;28;20444;-74
2023/08/17 01:00:39;;;;;;;7.87;7.17;;;;;;;22.14;78.55;94959.84;5078123;28;20443;-75
2023/08/17 01:03:07;;;;;;;8.83;6.20;;;;;;;22.14;78.20;94965.22;5078196;28;20453;-75
2023/08/17 01:05:34;;;;;;;7.63;6.77;;;;;;;22.16;77.77;94963.97;5077830;28;20446;-74
2023/08/17 01:08:00;;;;;;;8.30;6.90;;;;;;;22.10;77.79;94964.78;5077409;28;20971;-76
2023/08/17 01:10:41;;;;;;;10.73;5.87;;;;;;;22.12;77.42;94959.25;5056950;28;20458;-76
2023/08/17 01:13:14;;;;;;;7.20;6.07;;;;;;;22.03;77.66;94958.56;5075485;28;20521;-76
2023/08/17 01:15:46;;;;;;;10.00;6.20;;;;;;;21.90;77.44;94953.13;5057532;28;20951;-76
2023/08/17 01:18:23;;;;;;;6.40;5.80;;;;;;;21.84;77.16;94962.78;5075695;28;20452;-76
2023/08/17 01:20:51;;;;;;;5.97;5.37;;;;;;;21.81;76.56;94971.19;5075726;28;20473;-76
2023/08/17 01:23:19;;;;;;;9.13;4.73;;;;;;;21.75;75.80;94963.97;5076080;28;20447;-76
2023/08/17 01:25:46;;;;;;;6.83;5.37;;;;;;;21.72;74.78;94951.00;5076679;28;20795;-76
2023/08/17 01:28:13;;;;;;;5.80;4.87;;;;;;;21.69;74.16;94951.41;5076470;28;20447;-76
2023/08/17 01:30:48;;;;;;;5.53;5.03;;;;;;;21.72;73.92;94950.19;5076392;28;20518;-77
2023/08/17 01:33:21;;;;;;;9.50;5.30;;;;;;;21.71;75.28;94948.53;5076249;28;20439;-74
2023/08/17 01:35:58;;;;;;;8.13;6.60;;;;;;;21.61;76.62;94944.34;5076504;28;20456;-76
2023/08/17 01:38:30;;;;;;;5.30;4.87;;;;;;;21.58;76.43;94952.75;5075987;28;20444;-75
2023/08/17 01:40:58;;;;;;;7.07;5.43;;;;;;;21.45;75.71;94950.03;5075998;28;20440;-76
2023/08/17 01:43:26;;;;;;;6.80;5.30;;;;;;;21.49;75.44;94940.59;5076030;28;20444;-76
2023/08/17 01:45:53;;;;;;;4.97;4.60;;;;;;;21.46;75.63;94951.66;5057394;28;20492;-76
2023/08/17 01:48:20;;;;;;;5.97;5.47;;;;;;;21.53;74.96;94957.88;5075621;28;20423;-76
2023/08/17 01:50:46;;;;;;;6.77;5.03;;;;;;;21.59;75.09;94951.75;5075850;28;20930;-76
2023/08/17 01:53:13;;;;;;;5.50;4.87;;;;;;;21.63;74.80;94950.31;5075592;28;20451;-76
2023/08/17 01:55:42;;;;;;;6.20;5.50;;;;;;;21.67;74.19;94950.75;5074460;28;20440;-77
2023/08/17 01:58:08;;;;;;;11.10;4.63;;;;;;;21.68;73.66;94951.56;5074988;28;20443;-76
2023/08/17 02:00:35;;;;;;;6.43;5.30;;;;;;;21.65;73.01;94947.44;5075671;28;20458;-76
2023/08/17 02:03:02;;;;;;;5.03;4.60;;;;;;;21.71;72.86;94954.69;5076104;28;20487;-76
2023/08/17 02:05:29;;;;;;;4.37;3.97;;;;;;;21.78;72.73;94950.22;5075494;28;20454;-76
2023/08/17 02:07:55;;;;;;;9.43;4.90;;;;;;;21.77;72.92;94953.09;5075131;28;20445;-76
2023/08/17 02:10:22;;;;;;;9.40;4.10;;;;;;;21.75;72.43;94950.63;5074678;28;20453;-77
2023/08/17 02:12:51;;;;;;;5.17;4.57;;;;;;;21.72;71.96;94951.00;5075123;28;20451;-76
2023/08/17 02:15:17;;;;;;;5.50;4.40;;;;;;;21.74;72.29;94953.47;5075486;28;20450;-75
2023/08/17 02:17:47;;;;;;;7.00;4.77;;;;;;;21.74;72.24;94945.47;5075562;28;20459;-76
2023/08/17 02:20:14;;;;;;;6.23;5.07;;;;;;;21.68;72.09;94943.56;5075267;28;20442;-76
2023/08/17 02:22:40;;;;;;;4.90;4.50;;;;;;;21.69;71.84;94939.91;5075181;28;20481;-76
2023/08/17 02:25:09;;;;;;;7.53;6.60;;;;;;;21.65;71.82;94945.59;5073898;28;20444;-77
2023/08/17 02:27:38;;;;;;;5.57;5.07;;;;;;;21.62;72.25;94945.19;5073768;28;20442;-76
2023/08/17 02:30:07;;;;;;;6.70;4.47;;;;;;;21.63;72.29;94947.66;5055065;28;20437;-76
2023/08/17 02:32:34;;;;;;;6.33;4.70;;;;;;;21.57;72.83;94945.78;5073911;28;20443;-76
2023/08/17 02:35:01;;;;;;;5.17;4.77;;;;;;;21.56;73.10;94936.09;5074082;28;20446;-77
2023/08/17 02:37:28;;;;;;;8.20;5.40;;;;;;;21.51;73.47;94940.41;5075163;28;20443;-76
2023/08/17 02:39:57;;;;;;;7.97;4.40;;;;;;;21.39;73.68;94934.75;5074800;28;20444;-78
2023/08/17 02:42:24;;;;;;;10.30;5.20;;;;;;;21.33;74.07;94935.53;5074198;28;20571;-76
2023/08/17 02:44:51;;;;;;;8.20;5.17;;;;;;;21.32;74.17;94936.56;5073488;28;20457;-76
2023/08/17 02:47:19;;;;;;;6.20;5.53;;;;;;;21.21;74.35;94937.91;5073759;28;20455;-76
2023/08/17 02:49:49;;;;;;;5.10;4.70;;;;;;;21.18;74.38;94934.81;5073420;28;20450;-76
2023/08/17 02:52:17;;;;;;;5.87;4.73;;;;;;;21.16;74.24;94934.19;5055409;28;20474;-77
2023/08/17 02:54:44;;;;;;;7.03;5.00;;;;;;;21.13;74.68;94932.72;5055561;28;20442;-76
2023/08/17 02:57:12;;;;;;;4.83;4.33;;;;;;;21.14;74.38;94941.56;5074916;28;20430;-76
2023/08/17 02:59:38;;;;;;;6.00;4.23;;;;;;;21.13;74.35;94934.56;5075043;28;20439;-75
2023/08/17 03:02:05;;;;;;;5.50;4.90;;;;;;;21.13;73.84;94930.06;5074810;28;20487;-76
2023/08/17 03:04:33;;;;;;;5.47;5.00;;;;;;;21.12;73.85;94933.75;5074705;28;20430;-76
2023/08/17 03:07:00;;;;;;;10.20;4.60;;;;;;;21.09;73.98;94928.75;5074387;28;20475;-76
2023/08/17 03:09:27;;;;;;;8.63;4.80;;;;;;;21.10;74.13;94934.91;5074912;28;20452;-76
2023/08/17 03:11:54;;;;;;;9.77;4.93;;;;;;;21.11;73.89;94932.09;5039481;28;20451;-76
2023/08/17 03:14:21;;;;;;;5.60;4.87;;;;;;;21.14;73.99;94930.88;5074749;28;20752;-76
2023/08/17 03:16:47;;;;;;;7.33;4.80;;;;;;;21.16;73.80;94936.84;5074712;28;20450;-76
2023/08/17 03:19:14;;;;;;;9.83;5.30;;;;;;;21.12;73.97;94924.91;5074542;28;20449;-76
2023/08/17 03:21:42;;;;;;;5.47;4.87;;;;;;;21.17;73.42;94917.13;5074433;28;20524;-73
2023/08/17 03:24:09;;;;;;;5.03;4.63;;;;;;;21.17;73.18;94933.16;5074537;28;20439;-76
2023/08/17 03:26:36;;;;;;;9.40;4.57;;;;;;;21.17;73.12;94935.81;5073619;28;20441;-76
2023/08/17 03:29:03;;;;;;;5.83;5.33;;;;;;;21.18;73.37;94935.63;5071603;28;20440;-77
2023/08/17 03:31:30;;;;;;;6.13;4.60;;;;;;;21.20;73.07;94938.09;5074429;28;20454;-78
2023/08/17 03:33:57;;;;;;;7.47;4.63;;;;;;;21.19;73.05;94933.78;5074115;28;20443;-76
2023/08/17 03:36:23;;;;;;;8.03;5.17;;;;;;;21.16;73.42;94940.34;5054987;28;20955;-76
2023/08/17 03:38:52;;;;;;;8.13;4.67;;;;;;;21.19;73.34;94941.78;5073820;28;20449;-76
2023/08/17 03:41:19;;;;;;;5.00;4.47;;;;;;;21.15;73.51;94946.69;5073446;28;20443;-76
2023/08/17 03:43:46;;;;;;;12.20;5.03;;;;;;;21.09;73.69;94933.28;5073208;28;20485;-76
2023/08/17 03:46:13;;;;;;;6.60;4.73;;;;;;;21.07;73.58;94940.66;5073522;28;20451;-75
2023/08/17 03:48:40;;;;;;;5.30;4.73;;;;;;;21.07;73.58;94940.66;5073643;28;20446;-76
2023/08/17 03:51:07;;;;;;;5.70;4.63;;;;;;;21.03;73.88;94943.72;5073370;28;20435;-75
2023/08/17 03:53:34;;;;;;;5.77;4.30;;;;;;;21.06;73.72;94944.34;5073691;28;20443;-76
2023/08/17 03:56:02;;;;;;;17.40;7.73;;;;;;;21.06;74.08;94945.16;5073247;28;20943;-76
2023/08/17 03:58:33;;;;;;;5.07;4.57;;;;;;;21.02;73.91;94944.72;5072701;28;20444;-76
2023/08/17 04:00:59;;;;;;;8.17;4.30;;;;;;;21.02;73.95;94944.72;5054752;28;20939;-76
2023/08/17 04:03:26;;;;;;;5.43;4.87;;;;;;;21.02;73.75;94944.72;5072711;28;20487;-76
2023/08/17 04:05:53;;;;;;;4.80;4.40;;;;;;;21.03;73.29;94943.72;5073139;28;20447;-76
2023/08/17 04:08:20;;;;;;;7.10;4.70;;;;;;;21.06;73.21;94955.00;5070561;28;20442;-74
2023/08/17 04:10:47;;;;;;;5.77;5.17;;;;;;;21.19;72.54;94949.78;5073213;28;20487;-77
2023/08/17 04:13:15;;;;;;;10.27;5.40;;;;;;;21.29;72.23;94953.78;5073050;28;20892;-76
2023/08/17 04:15:42;;;;;;;8.47;4.53;;;;;;;21.58;71.61;94950.09;5073597;28;20450;-76
2023/08/17 04:18:09;;;;;;;4.87;4.47;;;;;;;22.08;69.89;94956.16;5068517;28;20463;-75
2023/08/17 04:20:35;;;;;;;9.67;4.60;;;;;;;22.71;67.51;94962.09;5067628;28;20471;-76
2023/08/17 04:23:02;;;;;;;4.40;4.00;;;;;;;23.33;65.16;94958.25;5077448;28;20478;-76
2023/08/17 04:25:29;;;;;;;5.07;4.10;;;;;;;23.99;62.89;94957.34;5077896;28;20448;-76
2023/08/17 04:27:56;;;;;;;4.93;4.27;;;;;;;24.52;60.58;94952.59;5077901;28;20933;-76
2023/08/17 04:30:27;;;;;;;4.23;3.83;;;;;;;25.01;58.70;94945.72;5078502;28;20820;-75
2023/08/17 04:32:54;;;;;;;6.43;3.93;;;;;;;25.45;57.42;94957.38;5045054;28;20437;-76
2023/08/17 04:35:21;;;;;;;4.63;3.87;;;;;;;25.82;55.71;94953.72;5082617;28;20453;-76
2023/08/17 04:37:48;;;;;;;4.30;3.90;;;;;;;26.10;54.64;94955.09;5088301;28;20449;-76
2023/08/17 04:40:15;;;;;;;4.20;3.70;;;;;;;26.34;53.95;94946.13;5096602;28;20437;-77
2023/08/17 04:42:45;;;;;;;5.60;4.07;;;;;;;26.47;53.14;94948.66;5098237;28;20468;-76
2023/08/17 04:45:12;;;;;;;11.80;4.30;;;;;;;26.72;52.06;94953.09;5098292;28;20416;-76
2023/08/17 04:47:41;;;;;;;7.53;3.97;;;;;;;26.89;50.76;94950.56;5098140;28;20453;-77
2023/08/17 04:50:08;;;;;;;6.33;4.07;;;;;;;27.01;50.52;94948.75;5098085;28;20441;-78
2023/08/17 04:52:35;;;;;;;5.63;4.47;;;;;;;27.20;51.00;94941.44;5097519;28;20459;-76
2023/08/17 04:55:03;;;;;;;6.93;4.10;;;;;;;27.50;49.67;94949.44;5096788;28;20451;-77
2023/08/17 04:57:30;;;;;;;3.70;3.40;;;;;;;27.72;49.24;94939.72;5096258;28;20449;-77
2023/08/17 04:59:58;;;;;;;7.17;4.97;;;;;;;27.79;48.57;94953.13;5095255;28;20467;-77
2023/08/17 05:02:25;;;;;;;4.70;3.50;;;;;;;27.73;48.35;94947.56;5092469;28;20480;-78
2023/08/17 05:04:53;;;;;;;7.33;3.80;;;;;;;27.77;48.09;94942.56;5087209;28;20997;-77
2023/08/17 05:07:20;;;;;;;7.50;4.10;;;;;;;27.97;48.78;94931.38;5088256;28;20452;-77
2023/08/17 05:09:47;;;;;;;5.83;4.03;;;;;;;28.23;47.73;94935.44;5076504;28;20779;-76
2023/08/17 05:12:14;;;;;;;3.83;3.53;;;;;;;28.33;47.43;94941.88;5076080;28;20468;-76
2023/08/17 05:14:41;;;;;;;4.73;3.53;;;;;;;28.45;46.97;94947.28;5076390;28;20456;-77
2023/08/17 05:17:08;;;;;;;3.67;3.13;;;;;;;28.56;46.37;94937.47;5076099;28;20448;-77
2023/08/17 05:19:34;;;;;;;4.10;3.80;;;;;;;28.64;46.62;94937.94;5075507;28;20532;-78
2023/08/17 05:22:03;;;;;;;5.20;3.50;;;;;;;28.91;46.06;94940.91;5040009;28;20843;-78
2023/08/17 05:24:29;;;;;;;5.23;4.17;;;;;;;29.05;45.28;94940.59;5075185;28;20463;-77
2023/08/17 05:26:56;;;;;;;6.17;3.87;;;;;;;29.18;45.04;94937.56;5075430;28;20441;-77
2023/08/17 05:29:23;;;;;;;3.40;3.10;;;;;;;29.32;44.70;94938.88;5056234;28;20955;-77
2023/08/17 05:31:50;;;;;;;4.70;3.57;;;;;;;29.44;44.60;94942.34;5074534;28;20460;-77
2023/08/17 05:34:16;;;;;;;3.90;3.53;;;;;;;29.69;44.49;94949.22;5074870;28;20444;-77
2023/08/17 05:36:43;;;;;;;4.67;3.33;;;;;;;29.94;43.71;94946.91;5074819;28;20441;-78
2023/08/17 05:39:12;;;;;;;4.63;3.70;;;;;;;30.07;43.25;94945.75;5074864;28;20448;-77
2023/08/17 05:41:38;;;;;;;3.90;3.60;;;;;;;30.18;42.74;94945.66;5074828;28;20536;-78
2023/08/17 05:44:06;;;;;;;5.60;3.57;;;;;;;30.39;42.63;94940.50;5055721;28;20484;-76
2023/08/17 05:46:33;;;;;;;4.93;3.40;;;;;;;30.73;42.54;94947.44;5074827;28;20441;-77
2023/08/17 05:49:01;;;;;;;3.93;3.50;;;;;;;31.04;42.42;94951.28;5074962;28;20441;-77
2023/08/17 05:51:28;;;;;;;6.57;3.57;;;;;;;31.06;43.10;94954.53;5079977;28;20457;-77
2023/08/17 05:53:55;;;;;;;4.40;4.00;;;;;;;31.09;44.18;94943.19;5085936;28;20441;-77
2023/08/17 05:56:23;;;;;;;9.50;4.30;;;;;;;31.20;44.45;94952.25;5074409;28;20441;-76
2023/08/17 05:58:50;;;;;;;6.70;4.50;;;;;;;31.25;45.64;94949.63;5074895;28;20440;-76
2023/08/17 06:01:16;;;;;;;11.23;5.40;;;;;;;30.95;46.09;94952.81;5074418;28;20436;-77
2023/08/17 06:03:43;;;;;;;9.80;5.60;;;;;;;30.85;47.22;94952.69;5074093;28;20484;-77
2023/08/17 06:06:10;;;;;;;12.60;6.17;;;;;;;30.96;46.56;94953.63;5074484;28;20442;-78
2023/08/17 06:08:37;;;;;;;7.00;4.77;;;;;;;30.48;46.19;94957.94;5074630;28;20437;-77
2023/08/17 06:11:04;;;;;;;7.80;4.57;;;;;;;30.38;46.13;94961.34;5074198;28;20448;-75
2023/08/17 06:13:32;;;;;;;20.93;5.23;;;;;;;30.49;46.48;94954.97;5074219;28;20953;-77
2023/08/17 06:15:59;;;;;;;12.33;5.00;;;;;;;29.75;46.38;94959.06;5074230;28;20515;-77
2023/08/17 06:18:26;;;;;;;10.33;5.40;;;;;;;29.80;46.94;94951.03;5073690;28;20436;-77
2023/08/17 06:20:53;;;;;;;4.77;4.27;;;;;;;29.79;45.28;94954.81;5073891;28;20966;-79
2023/08/17 06:23:20;;;;;;;6.13;4.40;;;;;;;29.78;46.41;94950.44;5073652;28;20484;-78
2023/08/17 06:25:47;;;;;;;6.47;4.53;;;;;;;29.87;47.14;94948.97;5074176;28;20467;-78
2023/08/17 06:28:14;;;;;;;6.07;5.23;;;;;;;29.63;47.98;94945.63;5074357;28;20440;-77
2023/08/17 06:30:42;;;;;;;8.20;6.00;;;;;;;29.40;48.47;94945.75;5073966;28;20445;-77
2023/08/17 06:33:09;;;;;;;5.60;5.07;;;;;;;29.29;48.89;94950.19;5073879;28;20440;-77
2023/08/17 06:35:36;;;;;;;6.30;5.70;;;;;;;29.73;49.17;94955.78;5073972;28;20452;-77
2023/08/17 06:38:03;;;;;;;5.80;4.90;;;;;;;29.95;47.82;94953.94;5076432;28;20433;-76
2023/08/17 06:40:29;;;;;;;6.43;5.30;;;;;;;30.16;49.10;94955.91;5073491;28;20943;-77
2023/08/17 06:42:56;;;;;;;12.57;6.80;;;;;;;30.24;48.61;94951.94;5072705;28;20480;-77
2023/08/17 06:45:23;;;;;;;15.20;6.00;;;;;;;30.31;49.20;94952.56;5073202;28;20448;-77
2023/08/17 06:47:51;;;;;;;10.47;6.47;;;;;;;30.50;47.74;94956.59;5073159;28;20935;-77
2023/08/17 06:50:18;;;;;;;8.43;7.00;;;;;;;30.68;47.96;94960.09;5073389;28;20445;-77
2023/08/17 06:52:45;;;;;;;9.17;5.23;;;;;;;30.55;46.99;94952.31;5073544;28;20464;-77
2023/08/17 06:55:12;;;;;;;6.57;5.93;;;;;;;30.58;48.18;94955.34;5073073;28;20445;-77
2023/08/17 06:57:38;;;;;;;13.50;7.50;;;;;;;30.47;47.46;94954.41;5073247;28;20452;-76
2023/08/17 07:00:07;;;;;;;8.10;6.03;;;;;;;30.58;47.92;94952.63;5073233;28;20456;-76
2023/08/17 07:02:34;;;;;;;6.07;5.57;;;;;;;30.59;48.30;94946.13;5054018;28;20441;-77
2023/08/17 07:05:03;;;;;;;7.33;5.40;;;;;;;30.33;47.97;94963.16;5072879;28;20441;-76
2023/08/17 07:07:31;;;;;;;6.40;5.70;;;;;;;30.04;48.31;94957.06;5073315;28;20795;-76
2023/08/17 07:09:58;;;;;;;9.17;5.60;;;;;;;30.34;47.22;94956.66;5073227;28;20457;-75
2023/08/17 07:12:25;;;;;;;11.07;5.83;;;;;;;30.70;48.49;94960.66;5072742;28;20928;-77
2023/08/17 07:14:51;;;;;;;12.37;5.63;;;;;;;30.83;46.69;94957.56;5072765;28;20445;-76
2023/08/17 07:17:18;;;;;;;8.57;5.90;;;;;;;31.08;45.23;94957.00;5073292;28;20445;-76
2023/08/17 07:19:45;;;;;;;6.00;5.50;;;;;;;31.36;44.85;94956.75;5072785;28;20440;-76
2023/08/17 07:22:13;;;;;;;7.47;5.17;;;;;;;31.41;41.96;94956.78;5072772;28;20483;-77
2023/08/17 07:24:41;;;;;;;9.60;5.70;;;;;;;31.61;43.35;94950.72;5072551;28;20851;-77
2023/08/17 07:27:08;;;;;;;9.37;5.50;;;;;;;31.40;41.53;94947.03;5072681;28;20441;-76
2023/08/17 07:29:35;;;;;;;5.43;4.90;;;;;;;31.63;41.31;94953.16;5072384;28;20822;-78
2023/08/17 07:32:02;;;;;;;8.20;6.07;;;;;;;31.81;42.18;94950.09;5072705;28;20445;-77
2023/08/17 07:34:30;;;;;;;6.77;5.07;;;;;;;31.88;41.40;94941.72;5073198;28;20437;-78
2023/08/17 07:36:56;;;;;;;5.90;4.97;;;;;;;32.12;41.11;94942.13;5072403;28;20536;-77
2023/08/17 07:39:25;;;;;;;7.00;5.20;;;;;;;32.22;40.74;94944.91;5072575;28;20437;-77
2023/08/17 07:41:51;;;;;;;6.30;5.70;;;;;;;32.34;42.24;94942.78;5053779;28;20464;-78
2023/08/17 07:44:18;;;;;;;6.73;4.93;;;;;;;32.52;41.65;94942.34;5072801;28;20542;-76
2023/08/17 07:46:45;;;;;;;5.40;4.90;;;;;;;32.58;41.01;94944.00;5072796;28;20456;-78
2023/08/17 07:49:12;;;;;;;7.40;5.17;;;;;;;32.67;41.52;94936.13;5072738;28;20780;-77
2023/08/17 07:51:39;;;;;;;7.73;5.13;;;;;;;32.99;40.43;94943.34;5072559;28;20452;-78
2023/08/17 07:54:06;;;;;;;6.00;5.50;;;;;;;33.16;39.14;94939.28;5053274;28;20437;-78
2023/08/17 07:56:34;;;;;;;7.70;5.67;;;;;;;33.36;39.24;94940.44;5072120;28;20447;-79
2023/08/17 07:59:01;;;;;;;5.87;5.30;;;;;;;32.91;39.96;94941.94;5072106;28;20445;-77
2023/08/17 08:01:27;;;;;;;5.70;5.20;;;;;;;32.99;39.89;94927.03;5072411;28;20440;-78
2023/08/17 08:03:54;;;;;;;9.80;5.30;;;;;;;33.16;39.05;94933.84;5053252;28;20498;-78
2023/08/17 08:06:21;;;;;;;8.97;5.53;;;;;;;33.32;38.58;94931.19;5072036;28;20437;-78
2023/08/17 08:08:48;;;;;;;8.33;5.30;;;;;;;33.16;38.55;94928.41;5072220;28;20440;-78
2023/08/17 08:11:15;;;;;;;7.67;5.07;;;;;;;32.98;37.97;94915.34;5072413;28;20449;-78
2023/08/17 08:13:43;;;;;;;6.47;4.97;;;;;;;32.99;38.70;94919.69;5072217;28;20812;-78
2023/08/17 08:16:10;;;;;;;5.87;5.27;;;;;;;32.81;38.77;94920.19;5072550;28;20448;-79
2023/08/17 08:18:36;;;;;;;5.93;4.90;;;;;;;33.04;40.17;94910.72;5053321;28;20444;-78
2023/08/17 08:21:03;;;;;;;6.20;4.33;;;;;;;33.23;38.36;94919.97;5072361;28;20464;-79
2023/08/17 08:23:30;;;;;;;6.63;4.90;;;;;;;33.23;37.45;94917.25;5072297;28;20845;-79
2023/08/17 08:25:58;;;;;;;7.10;5.20;;;;;;;32.57;37.95;94907.03;5070166;28;20437;-78
2023/08/17 08:28:25;;;;;;;6.23;4.40;;;;;;;32.54;38.39;94904.03;5072194;28;20463;-77
2023/08/17 08:30:53;;;;;;;5.03;4.50;;;;;;;32.66;38.26;94913.56;5072203;28;20475;-78
2023/08/17 08:33:20;;;;;;;6.40;4.37;;;;;;;32.29;38.50;94902.84;5071999;28;20927;-78
2023/08/17 08:35:47;;;;;;;7.33;4.53;;;;;;;32.31;40.69;94899.88;5072636;28;20798;-78
2023/08/17 08:38:15;;;;;;;5.27;4.50;;;;;;;32.01;38.79;94906.75;5071433;28;20447;-78
2023/08/17 08:40:43;;;;;;;6.10;4.63;;;;;;;32.04;39.70;94900.81;5072032;28;20444;-79
2023/08/17 08:43:10;;;;;;;6.33;4.30;;;;;;;32.11;39.76;94900.59;5072084;28;20436;-77
2023/08/17 08:45:38;;;;;;;5.67;4.47;;;;;;;32.33;38.27;94892.28;5071571;28;21000;-78
2023/08/17 08:48:07;;;;;;;6.73;4.67;;;;;;;31.77;39.96;94900.09;5072389;28;20445;-78
2023/08/17 08:50:37;;;;;;;7.13;4.77;;;;;;;31.55;40.54;94896.69;5053914;28;20943;-79
2023/08/17 08:53:04;;;;;;;5.37;4.47;;;;;;;31.34;40.04;94901.13;5072097;28;20445;-78
2023/08/17 08:55:35;;;;;;;5.53;4.60;;;;;;;31.71;40.46;94891.13;5071528;28;20929;-76
2023/08/17 08:58:05;;;;;;;7.60;5.13;;;;;;;31.90;40.49;94901.56;5072215;28;20444;-78
2023/08/17 09:00:33;;;;;;;4.70;4.30;;;;;;;31.57;41.95;94897.25;5071481;28;20441;-77
2023/08/17 09:03:01;;;;;;;5.10;4.50;;;;;;;31.57;42.21;94892.63;5071794;28;20443;-78
2023/08/17 09:05:29;;;;;;;5.20;4.80;;;;;;;31.28;41.64;94894.84;5072386;28;20570;-79
2023/08/17 09:07:58;;;;;;;5.93;4.70;;;;;;;31.58;40.81;94874.47;5075000;28;20440;-78
2023/08/17 09:10:25;;;;;;;4.87;4.47;;;;;;;31.08;41.97;94881.91;5075231;28;20448;-78
2023/08/17 09:12:52;;;;;;;4.50;3.67;;;;;;;31.20;41.79;94876.34;5075275;28;20521;-78
2023/08/17 09:15:19;;;;;;;4.83;4.20;;;;;;;31.41;42.17;94875.41;5075182;28;20437;-78
2023/08/17 09:17:48;;;;;;;5.30;4.37;;;;;;;31.66;42.47;94865.81;5075904;28;20811;-78
2023/08/17 09:20:39;;;;;;;6.20;4.23;;;;;;;31.24;40.99;94863.91;5057943;28;20443;-78
2023/08/17 09:23:10;;;;;;;5.10;3.90;;;;;;;31.59;41.10;94865.25;5076860;28;20494;-78
2023/08/17 09:25:39;;;;;;;7.40;4.63;;;;;;;31.65;39.88;94864.19;5077012;28;20498;-78
2023/08/17 09:28:09;;;;;;;3.53;3.23;;;;;;;31.45;38.23;94848.59;5076232;28;20449;-77
2023/08/17 09:30:51;;;;;;;4.70;3.50;;;;;;;31.69;37.89;94854.44;5076425;28;20449;-76
2023/08/17 09:33:17;;;;;;;6.03;3.13;;;;;;;31.37;39.08;94860.75;5076557;28;20444;-78
2023/08/17 09:35:46;;;;;;;3.40;3.10;;;;;;;31.47;37.51;94851.03;5076165;28;20449;-77
2023/08/17 09:38:12;;;;;;;6.67;3.70;;;;;;;31.72;37.51;94848.50;5076090;28;20437;-79
2023/08/17 09:40:40;;;;;;;3.90;3.50;;;;;;;31.65;37.68;94840.59;5058829;28;20443;-78
2023/08/17 09:43:07;;;;;;;5.27;3.23;;;;;;;31.47;37.41;94842.91;5076558;28;20429;-78
2023/08/17 09:45:33;;;;;;;6.40;3.47;;;;;;;31.46;37.25;94833.13;5075664;28;20476;-78
2023/08/17 09:48:00;;;;;;;5.50;3.30;;;;;;;31.37;39.16;94841.75;5075571;28;20445;-78
2023/08/17 09:50:27;;;;;;;4.00;3.30;;;;;;;31.49;37.90;94843.44;5075203;28;20452;-79
2023/08/17 09:52:56;;;;;;;5.40;3.13;;;;;;;31.35;37.52;94832.25;5075325;28;20788;-77
2023/08/17 09:55:23;;;;;;;3.93;3.53;;;;;;;31.33;37.90;94829.00;5075292;28;20513;-78
2023/08/17 09:57:51;;;;;;;5.67;3.80;;;;;;;31.50;38.26;94835.06;5075282;28;20487;-79
2023/08/17 10:00:19;;;;;;;4.90;3.33;;;;;;;31.54;37.64;94830.75;5075207;28;20845;-78
2023/08/17 10:02:48;;;;;;;3.83;3.40;;;;;;;31.66;36.72;94833.25;5057114;28;20444;-77
2023/08/17 10:05:19;;;;;;;3.87;3.57;;;;;;;31.55;37.77;94831.56;5073230;28;20488;-79
2023/08/17 10:07:49;;;;;;;4.40;3.67;;;;;;;31.33;36.38;94829.81;5075621;28;20445;-78
2023/08/17 10:10:23;;;;;;;3.90;3.60;;;;;;;31.42;38.24;94822.00;5075435;28;20944;-78
2023/08/17 10:12:58;;;;;;;4.87;3.73;;;;;;;31.28;37.89;94818.94;5075235;28;20839;-78
2023/08/17 10:15:30;;;;;;;5.10;3.40;;;;;;;31.36;37.96;94814.91;5057088;28;20448;-77
2023/08/17 10:18:14;;;;;;;3.83;3.50;;;;;;;31.42;38.09;94811.94;5073923;28;20432;-76
2023/08/17 10:20:43;;;;;;;5.23;3.60;;;;;;;30.92;38.07;94820.50;5075535;28;20465;-77
2023/08/17 10:23:16;;;;;;;7.20;3.77;;;;;;;30.90;37.33;94814.53;5075066;28;20445;-78
2023/08/17 10:25:45;;;;;;;3.50;3.20;;;;;;;31.04;37.69;94812.22;5074762;28;20481;-77
2023/08/17 10:28:13;;;;;;;8.10;3.37;;;;;;;31.08;36.90;94810.59;5074703;28;20433;-78
2023/08/17 10:30:40;;;;;;;6.70;3.13;;;;;;;31.02;36.44;94817.88;5074009;28;20456;-78
2023/08/17 10:33:08;;;;;;;3.60;2.83;;;;;;;30.94;36.96;94820.25;5089059;28;20429;-80
2023/08/17 10:35:36;;;;;;;3.83;3.63;;;;;;;30.97;37.49;94807.00;5073739;28;20453;-77
2023/08/17 10:38:04;;;;;;;6.40;4.03;;;;;;;31.00;37.19;94814.63;5074418;28;20535;-79
2023/08/17 10:40:37;;;;;;;3.40;3.20;;;;;;;30.78;36.12;94797.63;5055495;28;20441;-77
2023/08/17 10:43:05;;;;;;;3.73;3.30;;;;;;;30.93;35.13;94797.75;5075305;28;20797;-78
2023/08/17 10:45:34;;;;;;;3.43;3.17;;;;;;;30.98;36.00;94795.09;5074258;28;20485;-78
2023/08/17 10:48:25;;;;;;;3.70;3.37;;;;;;;31.09;36.04;94795.97;5073500;28;21069;-77
2023/08/17 10:51:06;;;;;;;3.73;3.23;;;;;;;31.15;35.50;94803.06;5074535;28;20437;-78
2023/08/17 10:53:42;;;;;;;4.17;3.77;;;;;;;31.04;35.42;94798.66;5073869;28;20919;-77
2023/08/17 10:56:12;;;;;;;5.73;3.17;;;;;;;31.19;35.75;94787.94;5073448;28;20440;-78
2023/08/17 10:58:43;;;;;;;4.30;4.00;;;;;;;31.38;36.07;94788.34;5073361;28;20445;-77
2023/08/17 11:01:10;;;;;;;3.53;3.23;;;;;;;31.57;36.56;94791.44;5073286;28;20936;-78
2023/08/17 11:03:37;;;;;;;9.10;3.50;;;;;;;31.67;35.78;94781.44;5073575;28;20445;-77
2023/08/17 11:06:18;;;;;;;3.33;3.03;;;;;;;31.49;34.26;94791.91;5073349;28;20867;-77
2023/08/17 11:08:56;;;;;;;3.60;3.30;;;;;;;31.36;35.85;94780.47;5073280;28;20502;-78
2023/08/17 11:11:24;;;;;;;5.10;3.30;;;;;;;31.45;35.12;94772.63;5073678;28;20478;-78
2023/08/17 11:13:54;;;;;;;3.63;2.90;;;;;;;31.40;36.70;94789.69;5073492;28;20456;-78
2023/08/17 11:16:20;;;;;;;3.47;3.17;;;;;;;31.40;35.73;94775.31;5073291;28;20452;-76
2023/08/17 11:18:48;;;;;;;4.80;3.43;;;;;;;31.51;35.65;94770.75;5073032;28;20441;-77
2023/08/17 11:21:15;;;;;;;3.40;3.10;;;;;;;31.39;35.46;94773.69;5071421;28;20522;-78
2023/08/17 11:23:42;;;;;;;4.23;3.67;;;;;;;31.56;34.88;94768.09;5073112;28;20444;-78
2023/08/17 11:26:12;;;;;;;6.37;3.70;;;;;;;31.59;36.41;94762.16;5072909;28;20484;-78
2023/08/17 11:28:40;;;;;;;4.87;3.20;;;;;;;31.64;35.31;94767.59;5072827;28;20440;-78
2023/08/17 11:31:10;;;;;;;4.03;2.80;;;;;;;31.67;35.32;94764.34;5073688;28;20455;-78
2023/08/17 11:33:38;;;;;;;7.50;3.27;;;;;;;31.50;35.36;94748.25;5072670;28;20437;-84
2023/08/17 11:36:07;;;;;;;4.17;3.33;;;;;;;31.54;36.41;94753.97;5072432;28;20433;-78